createdAt,value
2023-05-15T00:00:16.685Z,12.20
2023-05-15T00:02:44.857Z,12.30
2023-05-15T00:05:14.079Z,12.30
2023-05-15T00:07:41.514Z,12.20
2023-05-15T00:10:09.066Z,12.10
2023-05-15T00:12:36.757Z,12.10
2023-05-15T00:15:07.168Z,12.00
2023-05-15T00:17:39.409Z,12.10
2023-05-15T00:20:24.309Z,12.10
2023-05-15T00:23:16.147Z,12.10
2023-05-15T00:25:43.233Z,12.10
2023-05-15T00:28:10.446Z,12.00
2023-05-15T00:30:38.394Z,12.00
2023-05-15T00:33:07.928Z,12.00
2023-05-15T00:35:38.724Z,12.00
2023-05-15T00:38:05.896Z,11.90
2023-05-15T00:40:34.208Z,11.90
2023-05-15T00:43:06.823Z,11.90
2023-05-15T00:45:34.643Z,11.90
2023-05-15T00:48:02.755Z,11.80
2023-05-15T00:50:32.775Z,11.80
2023-05-15T00:53:02.077Z,11.80
2023-05-15T00:55:29.869Z,11.80
2023-05-15T00:58:00.904Z,11.80
2023-05-15T01:00:28.527Z,11.90
2023-05-15T01:02:56.685Z,11.80
2023-05-15T01:05:25.116Z,11.70
2023-05-15T01:08:26.252Z,11.70
2023-05-15T01:10:55.642Z,11.70
2023-05-15T01:13:25.794Z,11.70
2023-05-15T01:15:55.248Z,11.70
2023-05-15T01:18:22.361Z,11.70
2023-05-15T01:21:10.401Z,11.60
2023-05-15T01:23:52.632Z,11.60
2023-05-15T01:26:31.863Z,11.50
2023-05-15T01:29:11.678Z,11.60
2023-05-15T01:31:44.387Z,11.50
2023-05-15T01:34:12.874Z,11.30
2023-05-15T01:36:47.293Z,11.30
2023-05-15T01:39:19.722Z,11.20
2023-05-15T01:41:55.068Z,11.20
2023-05-15T01:44:36.535Z,11.20
2023-05-15T01:47:08.850Z,11.20
2023-05-15T01:49:36.867Z,11.20
2023-05-15T01:52:26.285Z,11.20
2023-05-15T01:54:55.386Z,11.30
2023-05-15T01:57:23.832Z,11.30
2023-05-15T01:59:51.930Z,11.20
2023-05-15T02:02:19.631Z,11.20
2023-05-15T02:04:48.844Z,11.30
2023-05-15T02:07:16.788Z,11.40
2023-05-15T02:09:44.344Z,11.50
2023-05-15T02:12:11.500Z,11.50
2023-05-15T02:14:40.957Z,11.50
2023-05-15T02:17:09.054Z,11.50
2023-05-15T02:19:36.037Z,11.50
2023-05-15T02:22:03.724Z,11.50
2023-05-15T02:24:30.749Z,11.70
2023-05-15T02:27:08.485Z,11.60
2023-05-15T02:29:53.568Z,11.60
2023-05-15T02:32:31.606Z,11.50
2023-05-15T02:35:04.515Z,11.50
2023-05-15T02:37:34.951Z,11.50
2023-05-15T02:40:30.297Z,11.40
2023-05-15T02:43:02.331Z,11.40
2023-05-15T02:45:33.512Z,11.40
2023-05-15T02:48:03.798Z,11.30
2023-05-15T02:50:31.211Z,11.30
2023-05-15T02:53:07.301Z,11.20
2023-05-15T02:55:34.851Z,11.20
2023-05-15T02:58:03.393Z,11.10
2023-05-15T03:00:31.476Z,11.00
2023-05-15T03:02:58.479Z,11.00
2023-05-15T03:05:27.088Z,11.00
2023-05-15T03:07:54.339Z,11.00
2023-05-15T03:10:23.793Z,11.00
2023-05-15T03:12:51.869Z,11.00
2023-05-15T03:15:20.348Z,11.30
2023-05-15T03:17:48.369Z,11.20
2023-05-15T03:20:15.630Z,11.10
2023-05-15T03:22:43.685Z,11.00
2023-05-15T03:25:11.884Z,10.90
2023-05-15T03:27:39.236Z,11.00
2023-05-15T03:30:06.867Z,10.90
2023-05-15T03:32:35.002Z,10.90
2023-05-15T03:35:03.013Z,10.90
2023-05-15T03:37:33.281Z,10.80
2023-05-15T03:40:00.197Z,10.90
2023-05-15T03:42:27.964Z,11.00
2023-05-15T03:44:56.325Z,11.00
2023-05-15T03:47:23.469Z,11.10
2023-05-15T03:49:53.123Z,11.00
2023-05-15T03:52:20.285Z,11.00
2023-05-15T03:54:48.318Z,11.10
2023-05-15T03:57:15.303Z,11.00
2023-05-15T03:59:42.272Z,11.10
2023-05-15T04:02:09.233Z,11.20
2023-05-15T04:04:36.362Z,11.20
2023-05-15T04:07:05.289Z,11.30
2023-05-15T04:09:32.193Z,11.20
2023-05-15T04:11:59.179Z,11.20
2023-05-15T04:14:26.426Z,11.20
2023-05-15T04:16:55.476Z,11.10
2023-05-15T04:19:22.502Z,10.90
2023-05-15T04:21:51.500Z,10.80
2023-05-15T04:24:18.548Z,10.60
2023-05-15T04:26:46.607Z,10.60
2023-05-15T04:29:14.773Z,10.70
2023-05-15T04:31:42.827Z,10.80
2023-05-15T04:34:09.736Z,10.90
2023-05-15T04:36:37.737Z,10.90
2023-05-15T04:39:11.166Z,11.00
2023-05-15T04:45:28.947Z,10.90
2023-05-15T04:52:28.391Z,10.90
2023-05-15T04:54:58.588Z,10.90
2023-05-15T04:58:08.080Z,10.90
2023-05-15T05:01:06.132Z,11.00
2023-05-15T05:03:36.350Z,11.00
2023-05-15T05:06:05.681Z,11.00
2023-05-15T05:08:36.211Z,11.00
2023-05-15T05:11:03.575Z,11.20
2023-05-15T05:13:31.678Z,11.30
2023-05-15T05:15:58.893Z,11.30
2023-05-15T05:18:27.298Z,11.30
2023-05-15T05:21:02.750Z,11.10
2023-05-15T05:23:30.900Z,11.10
2023-05-15T05:25:59.846Z,11.00
2023-05-15T05:28:28.259Z,10.90
2023-05-15T05:30:56.188Z,11.00
2023-05-15T05:33:23.069Z,11.10
2023-05-15T05:35:52.758Z,11.30
2023-05-15T05:38:20.758Z,11.40
2023-05-15T05:40:48.719Z,11.40
2023-05-15T05:43:15.658Z,11.10
2023-05-15T05:45:44.601Z,11.10
2023-05-15T05:48:11.739Z,11.10
2023-05-15T05:50:38.965Z,11.00
2023-05-15T05:53:09.202Z,11.10
2023-05-15T05:55:36.524Z,11.10
2023-05-15T05:58:08.572Z,11.00
2023-05-15T06:00:41.795Z,11.00
2023-05-15T06:03:09.545Z,11.00
2023-05-15T06:05:36.617Z,11.20
2023-05-15T06:08:06.603Z,11.30
2023-05-15T06:10:33.676Z,11.40
2023-05-15T06:13:04.995Z,11.20
2023-05-15T06:15:31.989Z,11.20
2023-05-15T06:18:00.065Z,11.30
2023-05-15T06:20:30.539Z,11.20
2023-05-15T06:23:12.891Z,11.30
2023-05-15T06:25:40.439Z,11.30
2023-05-15T06:28:07.308Z,11.40
2023-05-15T06:30:34.339Z,11.40
2023-05-15T06:33:01.288Z,11.30
2023-05-15T06:35:28.396Z,11.40
2023-05-15T06:37:56.479Z,11.40
2023-05-15T06:40:25.197Z,11.50
2023-05-15T06:42:52.352Z,11.70
2023-05-15T06:45:19.395Z,11.90
2023-05-15T06:47:51.327Z,12.00
2023-05-15T06:50:21.887Z,12.10
2023-05-15T06:52:50.022Z,12.10
2023-05-15T06:55:17.200Z,12.20
2023-05-15T06:57:45.564Z,12.30
2023-05-15T07:00:15.179Z,12.30
2023-05-15T07:02:48.283Z,12.30
2023-05-15T07:05:16.964Z,12.50
2023-05-15T07:07:43.991Z,12.50
2023-05-15T07:10:17.174Z,12.40
2023-05-15T07:12:46.376Z,12.30
2023-05-15T07:15:13.726Z,12.50
2023-05-15T07:17:40.871Z,12.40
2023-05-15T07:20:14.065Z,12.60
2023-05-15T07:22:54.989Z,12.60
2023-05-15T07:25:23.931Z,12.40
2023-05-15T07:27:52.593Z,12.50
2023-05-15T07:30:23.514Z,12.40
2023-05-15T07:32:51.258Z,12.30
2023-05-15T07:35:19.691Z,12.20
2023-05-15T07:37:50.111Z,12.10
2023-05-15T07:40:18.126Z,12.30
2023-05-15T07:42:46.797Z,12.70
2023-05-15T07:45:15.234Z,13.10
2023-05-15T07:47:46.960Z,13.40
2023-05-15T07:50:16.732Z,13.30
2023-05-15T07:52:50.015Z,13.20
2023-05-15T07:55:18.081Z,13.30
2023-05-15T07:57:53.288Z,13.20
2023-05-15T08:00:22.761Z,13.20
2023-05-15T08:02:49.983Z,13.40
2023-05-15T08:05:17.183Z,13.70
2023-05-15T08:07:44.173Z,13.90
2023-05-15T08:10:11.575Z,14.00
2023-05-15T08:12:38.859Z,14.40
2023-05-15T08:15:09.428Z,14.40
2023-05-15T08:17:38.638Z,14.30
2023-05-15T08:20:06.453Z,14.10
2023-05-15T08:22:37.219Z,14.10
2023-05-15T08:25:06.007Z,14.00
2023-05-15T08:27:33.271Z,14.30
2023-05-15T08:30:00.542Z,14.50
2023-05-15T08:32:29.699Z,14.60
2023-05-15T08:34:56.808Z,14.90
2023-05-15T08:37:24.811Z,14.80
2023-05-15T08:39:54.495Z,14.70
2023-05-15T08:42:40.108Z,14.50
2023-05-15T08:45:10.200Z,13.90
2023-05-15T08:47:40.882Z,13.50
2023-05-15T08:50:15.545Z,13.10
2023-05-15T08:52:45.519Z,13.10
2023-05-15T08:55:14.736Z,13.10
2023-05-15T08:57:42.594Z,13.20
2023-05-15T09:00:15.111Z,13.10
2023-05-15T09:02:42.950Z,13.50
2023-05-15T09:05:10.549Z,13.80
2023-05-15T09:07:40.942Z,13.80
2023-05-15T09:10:09.569Z,13.80
2023-05-15T09:12:40.910Z,13.70
2023-05-15T09:15:09.966Z,14.10
2023-05-15T09:17:39.342Z,14.60
2023-05-15T09:20:08.599Z,14.70
2023-05-15T09:22:37.118Z,14.50
2023-05-15T09:25:05.500Z,14.40
2023-05-15T09:27:43.507Z,14.10
2023-05-15T09:30:13.544Z,14.30
2023-05-15T09:32:40.710Z,14.80
2023-05-15T09:35:38.576Z,14.80
2023-05-15T09:38:12.508Z,14.30
2023-05-15T09:40:40.932Z,14.30
2023-05-15T09:43:13.093Z,14.40
2023-05-15T09:45:43.411Z,14.10
2023-05-15T09:48:12.276Z,14.10
2023-05-15T09:50:42.827Z,14.30
2023-05-15T09:53:12.817Z,14.20
2023-05-15T09:58:25.294Z,14.30
2023-05-15T10:00:58.071Z,14.90
2023-05-15T10:03:29.256Z,15.20
2023-05-15T10:06:06.019Z,15.50
2023-05-15T10:09:04.428Z,15.70
2023-05-15T10:11:54.039Z,15.40
2023-05-15T10:14:26.601Z,15.30
2023-05-15T10:17:03.041Z,15.40
2023-05-15T10:19:58.894Z,15.60
2023-05-15T10:22:30.855Z,15.70
2023-05-15T10:25:25.114Z,15.80
2023-05-15T10:27:54.843Z,15.80
2023-05-15T10:30:25.864Z,15.90
2023-05-15T10:32:58.031Z,15.90
2023-05-15T10:35:27.133Z,15.90
2023-05-15T10:37:58.054Z,16.00
2023-05-15T10:40:27.094Z,15.80
2023-05-15T10:42:59.220Z,15.80
2023-05-15T10:45:30.779Z,15.90
2023-05-15T10:47:59.156Z,16.10
2023-05-15T10:50:27.588Z,16.10
2023-05-15T10:52:55.990Z,16.10
2023-05-15T10:55:23.921Z,16.10
2023-05-15T10:57:51.798Z,15.80
2023-05-15T11:00:27.348Z,15.60
2023-05-15T11:02:57.430Z,15.90
2023-05-15T11:05:26.296Z,16.00
2023-05-15T11:08:16.182Z,16.20
2023-05-15T11:10:46.216Z,16.30
2023-05-15T11:13:14.388Z,16.40
2023-05-15T11:15:44.522Z,16.50
2023-05-15T11:18:11.620Z,16.60
2023-05-15T11:20:43.027Z,16.60
2023-05-15T11:23:10.281Z,16.70
2023-05-15T11:25:52.557Z,16.60
2023-05-15T11:29:23.226Z,16.50
2023-05-15T11:31:56.355Z,16.50
2023-05-15T11:34:33.981Z,16.50
2023-05-15T11:41:33.617Z,16.40
2023-05-15T11:44:01.788Z,16.20
2023-05-15T11:46:33.294Z,16.10
2023-05-15T11:49:16.871Z,16.10
2023-05-15T11:51:48.680Z,16.00
2023-05-15T11:54:17.536Z,16.00
2023-05-15T11:56:44.985Z,15.80
2023-05-15T11:59:15.113Z,15.70
2023-05-15T12:01:47.535Z,15.50
2023-05-15T12:04:15.255Z,15.40
2023-05-15T12:06:45.441Z,15.40
2023-05-15T12:09:19.225Z,15.20
2023-05-15T12:11:52.396Z,15.00
2023-05-15T12:14:34.330Z,14.90
2023-05-15T12:17:04.618Z,14.90
2023-05-15T12:20:45.692Z,15.00
2023-05-15T12:27:33.704Z,15.70
2023-05-15T12:30:04.488Z,16.00
2023-05-15T12:32:35.690Z,16.00
2023-05-15T12:35:15.580Z,15.70
2023-05-15T12:37:42.779Z,15.40
2023-05-15T12:40:11.693Z,15.30
2023-05-15T12:42:43.803Z,14.90
2023-05-15T12:45:16.719Z,14.80
2023-05-15T12:47:46.562Z,14.90
2023-05-15T12:50:17.516Z,14.80
2023-05-15T12:53:02.708Z,14.70
2023-05-15T12:55:37.233Z,14.50
2023-05-15T12:58:08.250Z,14.40
2023-05-15T13:00:37.255Z,14.40
2023-05-15T13:03:06.286Z,14.50
2023-05-15T13:05:37.428Z,14.40
2023-05-15T13:08:09.681Z,14.30
2023-05-15T13:10:38.664Z,14.10
2023-05-15T13:13:05.932Z,14.00
2023-05-15T13:15:35.558Z,13.90
2023-05-15T13:18:19.126Z,13.60
2023-05-15T13:20:48.328Z,13.50
2023-05-15T13:23:24.320Z,13.40
2023-05-15T13:25:54.521Z,13.10
2023-05-15T13:28:23.885Z,12.90
2023-05-15T13:30:56.316Z,12.80
2023-05-15T13:33:44.370Z,12.80
2023-05-15T13:36:12.422Z,12.80
2023-05-15T13:38:39.465Z,12.90
2023-05-15T13:41:13.362Z,12.90
2023-05-15T13:43:53.023Z,13.00
2023-05-15T13:46:22.269Z,13.10
2023-05-15T13:48:49.560Z,13.00
2023-05-15T13:51:20.216Z,13.00
2023-05-15T13:53:48.945Z,13.00
2023-05-15T13:56:16.461Z,13.10
2023-05-15T13:58:45.270Z,13.10
2023-05-15T14:01:12.359Z,13.10
2023-05-15T14:03:48.990Z,13.00
2023-05-15T14:06:17.538Z,12.90
2023-05-15T14:08:44.730Z,12.80
2023-05-15T14:11:12.331Z,12.90
2023-05-15T14:13:39.662Z,12.90
2023-05-15T14:16:07.159Z,12.90
2023-05-15T14:18:34.972Z,12.90
2023-05-15T14:21:02.229Z,12.80
2023-05-15T14:23:36.117Z,12.60
2023-05-15T14:26:04.477Z,12.50
2023-05-15T14:28:31.488Z,12.30
2023-05-15T14:30:59.220Z,12.20
2023-05-15T14:33:26.798Z,12.30
2023-05-15T14:35:57.395Z,12.30
2023-05-15T14:38:24.504Z,12.20
2023-05-15T14:40:52.700Z,12.20
2023-05-15T14:43:19.833Z,12.30
2023-05-15T14:45:49.432Z,12.40
2023-05-15T14:48:19.420Z,12.50
2023-05-15T14:50:51.781Z,12.80
2023-05-15T14:53:21.186Z,12.90
2023-05-15T14:56:05.010Z,13.00
2023-05-15T14:58:35.383Z,13.00
2023-05-15T15:01:09.302Z,13.00
2023-05-15T15:03:37.733Z,13.00
2023-05-15T15:06:06.192Z,12.90
2023-05-15T15:08:36.485Z,12.90
2023-05-15T15:11:05.698Z,13.00
2023-05-15T15:13:32.677Z,13.00
2023-05-15T15:15:59.920Z,13.00
2023-05-15T15:18:28.167Z,13.10
2023-05-15T15:20:59.962Z,13.00
2023-05-15T15:23:34.082Z,13.00
2023-05-15T15:26:02.467Z,13.00
2023-05-15T15:28:34.185Z,12.90
2023-05-15T15:31:16.684Z,13.00
2023-05-15T15:33:46.134Z,13.00
2023-05-15T15:36:15.460Z,13.00
2023-05-15T15:38:43.800Z,13.10
2023-05-15T15:41:13.482Z,13.20
2023-05-15T15:43:42.657Z,13.10
2023-05-15T15:46:10.269Z,13.30
2023-05-15T15:48:38.451Z,13.30
2023-05-15T15:51:06.126Z,13.50
2023-05-15T15:53:36.790Z,13.60
2023-05-15T15:56:05.905Z,13.50
2023-05-15T16:12:29.207Z,13.20
2023-05-15T16:15:13.369Z,13.00
2023-05-15T16:18:03.548Z,13.00
2023-05-15T16:20:35.029Z,13.00
2023-05-15T16:23:05.824Z,12.90
2023-05-15T16:25:34.929Z,12.90
2023-05-15T16:28:05.379Z,12.90
2023-05-15T16:30:47.894Z,12.80
2023-05-15T16:33:18.581Z,12.80
2023-05-15T16:35:52.121Z,12.80
2023-05-15T16:38:23.665Z,12.90
2023-05-15T16:40:54.047Z,12.80
2023-05-15T16:43:30.008Z,12.90
2023-05-15T16:46:00.989Z,12.90
2023-05-15T16:48:31.957Z,12.90
2023-05-15T16:51:02.690Z,12.80
2023-05-15T16:53:31.046Z,12.70
2023-05-15T16:56:00.614Z,12.80
2023-05-15T16:58:33.012Z,12.80
2023-05-15T17:01:00.245Z,12.80
2023-05-15T17:03:33.957Z,12.80
2023-05-15T17:06:02.965Z,12.90
2023-05-15T17:09:30.639Z,12.80
2023-05-15T17:11:59.814Z,12.90
2023-05-15T17:14:28.709Z,13.00
2023-05-15T17:16:57.591Z,12.90
2023-05-15T17:19:25.851Z,12.80
2023-05-15T17:21:53.743Z,12.80
2023-05-15T17:24:20.823Z,12.50
2023-05-15T17:26:47.914Z,12.20
2023-05-15T17:29:14.884Z,12.00
2023-05-15T17:31:44.064Z,11.90
2023-05-15T17:34:13.068Z,11.80
2023-05-15T17:36:52.756Z,11.80
2023-05-15T17:39:23.274Z,11.80
2023-05-15T17:41:54.098Z,11.80
2023-05-15T17:44:49.728Z,11.90
2023-05-15T17:47:18.456Z,11.80
2023-05-15T17:49:49.523Z,11.70
2023-05-15T17:52:19.276Z,11.70
2023-05-15T17:54:48.353Z,11.60
2023-05-15T17:57:18.733Z,11.70
2023-05-15T17:59:50.904Z,11.70
2023-05-15T18:02:19.123Z,11.70
2023-05-15T18:04:46.233Z,11.70
2023-05-15T18:07:16.290Z,11.60
2023-05-15T18:09:46.469Z,11.60
2023-05-15T18:12:14.388Z,11.60
2023-05-15T18:14:41.437Z,11.40
2023-05-15T18:17:10.199Z,11.40
2023-05-15T18:20:05.708Z,11.50
2023-05-15T18:22:36.178Z,11.40
2023-05-15T18:25:07.195Z,11.40
2023-05-15T18:27:37.583Z,11.40
2023-05-15T18:30:05.374Z,11.50
2023-05-15T18:32:36.836Z,11.40
2023-05-15T18:35:05.106Z,11.50
2023-05-15T18:37:35.409Z,11.50
2023-05-15T18:40:03.783Z,11.50
2023-05-15T18:42:31.970Z,11.40
2023-05-15T18:44:59.159Z,11.50
2023-05-15T18:47:26.507Z,11.50
2023-05-15T18:49:53.778Z,11.50
2023-05-15T18:52:21.691Z,11.60
2023-05-15T18:54:49.083Z,11.60
2023-05-15T18:57:17.117Z,11.50
2023-05-15T18:59:45.515Z,11.40
2023-05-15T19:02:13.473Z,11.40
2023-05-15T19:04:40.614Z,11.40
2023-05-15T19:07:11.698Z,11.50
2023-05-15T19:09:40.294Z,11.60
2023-05-15T19:12:09.728Z,11.60
2023-05-15T19:14:38.195Z,11.60
2023-05-15T19:17:07.478Z,11.60
2023-05-15T19:19:34.514Z,11.50
2023-05-15T19:22:02.066Z,11.50
2023-05-15T19:24:33.385Z,11.40
2023-05-15T19:27:01.183Z,11.40
2023-05-15T19:29:56.825Z,11.40
2023-05-15T19:32:32.582Z,11.40
2023-05-15T19:35:06.053Z,11.40
2023-05-15T19:37:44.734Z,11.50
2023-05-15T19:40:15.859Z,11.40
2023-05-15T19:42:51.925Z,11.30
2023-05-15T19:45:19.459Z,11.30
2023-05-15T19:48:00.623Z,11.40
2023-05-15T19:50:28.052Z,11.50
2023-05-15T19:53:00.477Z,11.40
2023-05-15T19:55:37.445Z,11.30
2023-05-15T19:58:07.763Z,11.30
2023-05-15T20:00:35.699Z,11.40
2023-05-15T20:03:05.979Z,11.40
2023-05-15T20:05:34.337Z,11.40
2023-05-15T20:08:08.578Z,11.60
2023-05-15T20:10:37.169Z,11.50
2023-05-15T20:13:14.420Z,11.50
2023-05-15T20:19:11.404Z,11.50
2023-05-15T20:21:39.854Z,11.40
2023-05-15T20:24:10.291Z,11.50
2023-05-15T20:26:39.795Z,11.60
2023-05-15T20:29:13.146Z,11.60
2023-05-15T20:31:45.997Z,11.60
2023-05-15T20:34:15.274Z,11.60
2023-05-15T20:36:45.499Z,11.60
2023-05-15T20:39:14.935Z,11.70
2023-05-15T20:41:43.211Z,11.70
2023-05-15T20:44:19.474Z,11.70
2023-05-15T20:46:51.711Z,11.50
2023-05-15T20:49:23.463Z,11.40
2023-05-15T20:51:53.726Z,11.40
2023-05-15T20:54:21.937Z,11.50
2023-05-15T20:56:50.145Z,11.50
2023-05-15T20:59:24.703Z,11.40
2023-05-15T21:01:57.326Z,11.50
2023-05-15T21:04:47.606Z,11.50
2023-05-15T21:07:14.777Z,11.50
2023-05-15T21:09:42.063Z,11.40
2023-05-15T21:12:09.159Z,11.40
2023-05-15T21:14:36.272Z,11.40
2023-05-15T21:17:04.534Z,11.40
2023-05-15T21:19:31.503Z,11.40
2023-05-15T21:22:02.402Z,11.50
2023-05-15T21:24:29.372Z,11.50
2023-05-15T21:27:02.406Z,11.40
2023-05-15T21:29:30.643Z,11.30
2023-05-15T21:31:57.609Z,11.40
2023-05-15T21:34:25.771Z,11.40
2023-05-15T21:36:53.941Z,11.40
2023-05-15T21:39:20.988Z,11.50
2023-05-15T21:41:49.729Z,11.40
2023-05-15T21:44:19.380Z,11.30
2023-05-15T21:46:46.270Z,11.40
2023-05-15T21:49:13.846Z,11.30
2023-05-15T21:51:42.028Z,11.30
2023-05-15T21:54:11.022Z,11.30
2023-05-15T21:56:38.331Z,11.30
2023-05-15T21:59:10.462Z,11.30
2023-05-15T22:01:37.803Z,11.30
2023-05-15T22:04:05.207Z,11.40
2023-05-15T22:06:38.758Z,11.30
2023-05-15T22:09:06.874Z,11.20
2023-05-15T22:11:35.160Z,11.20
2023-05-15T22:14:03.158Z,11.30
2023-05-15T22:16:30.242Z,11.30
2023-05-15T22:18:57.567Z,11.20
2023-05-15T22:21:25.237Z,11.10
2023-05-15T22:23:52.247Z,11.10
2023-05-15T22:26:21.446Z,11.20
2023-05-15T22:28:48.841Z,11.20
2023-05-15T22:31:16.977Z,11.20
2023-05-15T22:33:44.044Z,11.20
2023-05-15T22:36:11.858Z,11.20
2023-05-15T22:38:38.877Z,11.20
2023-05-15T22:41:06.063Z,11.20
2023-05-15T22:43:33.969Z,11.20
2023-05-15T22:46:21.437Z,11.20
2023-05-15T22:48:48.873Z,11.10
2023-05-15T22:51:16.291Z,11.20
2023-05-15T22:53:45.931Z,11.20
2023-05-15T22:56:12.896Z,11.20
2023-05-15T22:58:39.990Z,11.20
2023-05-15T23:01:07.015Z,11.20
2023-05-15T23:03:37.363Z,11.20
2023-05-15T23:06:07.718Z,11.20
2023-05-15T23:08:34.773Z,11.30
2023-05-15T23:11:01.852Z,11.20
2023-05-15T23:13:28.769Z,11.30
2023-05-15T23:15:56.793Z,11.30
2023-05-15T23:18:23.945Z,11.30
2023-05-15T23:20:50.945Z,11.20
2023-05-15T23:23:19.242Z,11.10
2023-05-15T23:25:46.221Z,11.10
2023-05-15T23:28:13.198Z,11.10
2023-05-15T23:30:40.173Z,11.10
2023-05-15T23:33:07.181Z,11.10
2023-05-15T23:35:35.148Z,11.10
2023-05-15T23:38:02.185Z,11.00
2023-05-15T23:40:29.187Z,10.90
2023-05-15T23:42:57.335Z,10.90
2023-05-15T23:45:24.292Z,10.90
2023-05-15T23:47:51.241Z,10.80
2023-05-15T23:50:21.309Z,10.80
2023-05-15T23:52:54.427Z,10.80
2023-05-15T23:55:25.298Z,10.70
2023-05-15T23:57:53.297Z,10.60
